Time;durP1;ratioP1;P1;durP2;ratioP2;P2;SDS_P1;SDS_P2;PMS_P1;PMS_P2;Temp;Humidity;BMP_temperature;BMP_pressure;BME280_temperature;BME280_humidity;BME280_pressure;Samples;Min_cycle;Max_cycle;Signal;HPM_P1;HPM_P2
2022/04/19 00:02:01;;;;;;;9.48;6.72;;;3.50;99.90;;;;;;5095645;28;20020;-89
2022/04/19 00:04:27;;;;;;;10.40;6.88;;;3.50;99.90;;;;;;5095937;28;20115;-89
2022/04/19 00:06:53;;;;;;;8.10;6.13;;;3.40;99.90;;;;;;5096987;28;20051;-89
2022/04/19 00:09:19;;;;;;;12.00;7.43;;;3.50;99.90;;;;;;5095606;28;20077;-89
2022/04/19 00:11:44;;;;;;;8.35;6.40;;;3.60;99.90;;;;;;5095741;28;20020;-89
2022/04/19 00:14:10;;;;;;;7.85;6.50;;;3.50;99.90;;;;;;5095580;28;20386;-89
2022/04/19 00:16:36;;;;;;;8.23;6.25;;;3.60;99.90;;;;;;5097002;28;20356;-90
2022/04/19 00:19:03;;;;;;;9.52;6.75;;;3.60;99.90;;;;;;5095526;28;20467;-89
2022/04/19 00:21:29;;;;;;;9.43;6.43;;;3.60;99.90;;;;;;5096572;28;20043;-89
2022/04/19 00:23:54;;;;;;;8.80;6.45;;;3.60;99.90;;;;;;5096485;28;20027;-89
2022/04/19 00:26:21;;;;;;;8.45;6.65;;;3.60;99.90;;;;;;5095460;28;20031;-89
2022/04/19 00:28:47;;;;;;;8.15;6.32;;;3.60;99.90;;;;;;5095030;28;20068;-90
2022/04/19 00:31:13;;;;;;;8.32;6.47;;;3.60;99.90;;;;;;5096907;28;20066;-89
2022/04/19 00:33:44;;;;;;;9.60;6.70;;;3.60;99.90;;;;;;5095518;28;20028;-89
2022/04/19 00:36:11;;;;;;;7.60;6.57;;;3.60;99.90;;;;;;5095216;28;20084;-89
2022/04/19 00:38:36;;;;;;;9.38;7.03;;;3.60;99.90;;;;;;5095161;28;20039;-88
2022/04/19 00:41:02;;;;;;;9.02;6.55;;;3.60;99.90;;;;;;5096460;28;20028;-88
2022/04/19 00:43:28;;;;;;;8.55;6.22;;;3.60;99.90;;;;;;5096143;28;20093;-88
2022/04/19 00:45:54;;;;;;;9.77;6.85;;;3.70;99.90;;;;;;5095987;28;20028;-88
2022/04/19 00:48:21;;;;;;;11.55;7.60;;;3.70;99.90;;;;;;5095268;28;20052;-88
2022/04/19 00:50:50;;;;;;;11.50;7.35;;;3.70;99.90;;;;;;5094739;28;20503;-88
2022/04/19 00:53:17;;;;;;;11.23;8.68;;;3.70;99.90;;;;;;5094908;28;20497;-88
2022/04/19 00:55:44;;;;;;;12.50;8.82;;;3.60;99.90;;;;;;5094861;28;20042;-88
2022/04/19 00:58:11;;;;;;;10.43;8.10;;;3.60;99.90;;;;;;5094847;28;20386;-88
2022/04/19 01:00:37;;;;;;;12.10;9.13;;;3.60;99.90;;;;;;5094642;28;20063;-88
2022/04/19 01:03:03;;;;;;;11.02;8.07;;;3.70;99.90;;;;;;5094624;28;20450;-88
2022/04/19 01:05:29;;;;;;;11.60;8.57;;;3.60;99.90;;;;;;5094607;28;20108;-88
2022/04/19 01:07:55;;;;;;;12.38;8.00;;;3.70;99.90;;;;;;5095544;28;20028;-88
2022/04/19 01:10:20;;;;;;;9.60;7.32;;;3.70;99.90;;;;;;5095778;28;20454;-86
2022/04/19 01:15:30;;;;;;;9.20;7.45;;;3.70;99.90;;;;;;5095791;28;20122;-86
2022/04/19 01:17:57;;;;;;;9.75;7.22;;;3.70;99.90;;;;;;5094444;28;20024;-85
2022/04/19 01:20:23;;;;;;;10.40;7.30;;;3.70;99.90;;;;;;5095467;28;20024;-85
2022/04/19 01:22:49;;;;;;;11.00;7.47;;;3.80;99.90;;;;;;5094299;28;20038;-85
2022/04/19 01:25:18;;;;;;;10.85;7.60;;;3.70;99.90;;;;;;5094249;28;20450;-85
2022/04/19 01:27:44;;;;;;;9.27;7.22;;;3.80;99.90;;;;;;5093807;28;20454;-86
2022/04/19 01:30:11;;;;;;;10.23;7.07;;;3.90;99.90;;;;;;5094189;28;20020;-86
2022/04/19 01:32:37;;;;;;;13.05;6.90;;;3.80;99.90;;;;;;5095436;28;20104;-86
2022/04/19 01:35:13;;;;;;;10.43;7.57;;;3.80;99.90;;;;;;5093922;28;20077;-86
2022/04/19 01:37:41;;;;;;;9.70;6.57;;;3.70;99.90;;;;;;5093963;28;20119;-85
2022/04/19 01:40:18;;;;;;;11.27;7.40;;;3.80;99.90;;;;;;5093805;28;20031;-86
2022/04/19 01:42:45;;;;;;;10.10;6.78;;;3.80;99.90;;;;;;5094000;28;20489;-85
2022/04/19 01:45:16;;;;;;;9.27;6.75;;;3.80;99.90;;;;;;5093829;28;20024;-85
2022/04/19 01:47:43;;;;;;;9.18;6.60;;;3.80;99.90;;;;;;5093729;28;20439;-86
2022/04/19 01:50:13;;;;;;;9.18;6.55;;;3.80;99.90;;;;;;5093790;28;20026;-85
2022/04/19 01:52:40;;;;;;;9.50;7.15;;;3.80;99.90;;;;;;5094816;28;20107;-85
2022/04/19 01:55:07;;;;;;;7.95;5.90;;;3.80;99.90;;;;;;5093767;28;20367;-85
2022/04/19 01:57:33;;;;;;;8.63;6.47;;;3.80;99.90;;;;;;5093583;28;20024;-85
2022/04/19 01:59:59;;;;;;;9.00;6.55;;;3.70;99.90;;;;;;5093792;28;20035;-85
2022/04/19 02:02:25;;;;;;;8.50;6.65;;;3.80;99.90;;;;;;5093607;28;20471;-85
2022/04/19 02:04:51;;;;;;;7.95;5.88;;;3.80;99.90;;;;;;5093712;28;20024;-85
2022/04/19 02:07:17;;;;;;;7.95;6.00;;;3.80;99.90;;;;;;5093975;28;20028;-85
2022/04/19 02:09:42;;;;;;;8.50;5.97;;;3.80;99.90;;;;;;5093756;28;20375;-85
2022/04/19 02:12:09;;;;;;;7.65;5.50;;;3.80;99.90;;;;;;5093517;28;20078;-85
2022/04/19 02:14:35;;;;;;;6.80;5.70;;;3.80;99.90;;;;;;5094588;28;20098;-85
2022/04/19 02:17:01;;;;;;;7.80;5.57;;;3.80;99.90;;;;;;5093399;28;20198;-85
2022/04/19 02:19:27;;;;;;;10.45;6.38;;;3.70;99.90;;;;;;5092889;28;20119;-85
2022/04/19 02:21:53;;;;;;;7.63;5.95;;;3.80;99.90;;;;;;5094665;28;20044;-85
2022/04/19 02:24:19;;;;;;;6.70;5.10;;;3.70;99.90;;;;;;5093159;28;20136;-85
2022/04/19 02:26:45;;;;;;;7.95;5.95;;;3.70;99.90;;;;;;5093501;28;20463;-85
2022/04/19 02:29:11;;;;;;;7.32;5.53;;;3.70;99.90;;;;;;5093048;28;20413;-85
2022/04/19 02:31:38;;;;;;;10.20;5.78;;;3.80;99.90;;;;;;5094285;28;20023;-85
2022/04/19 02:34:06;;;;;;;8.60;5.28;;;3.70;99.90;;;;;;5093150;28;20101;-85
2022/04/19 02:36:32;;;;;;;8.25;5.60;;;3.70;99.90;;;;;;5094223;28;20049;-85
2022/04/19 02:38:59;;;;;;;7.38;5.63;;;3.80;99.90;;;;;;5093089;28;20028;-85
2022/04/19 02:41:25;;;;;;;11.13;5.57;;;3.80;99.90;;;;;;5093023;28;20028;-85
2022/04/19 02:43:51;;;;;;;6.95;5.40;;;3.80;99.90;;;;;;5094130;28;20031;-85
2022/04/19 02:46:17;;;;;;;7.25;5.13;;;3.80;99.90;;;;;;5094434;28;20020;-85
2022/04/19 02:48:43;;;;;;;7.63;5.53;;;3.80;99.90;;;;;;5092885;28;20031;-85
2022/04/19 02:51:08;;;;;;;8.95;5.63;;;3.90;99.90;;;;;;5094354;28;20025;-85
2022/04/19 02:53:34;;;;;;;6.45;5.18;;;3.90;99.90;;;;;;5093094;28;20157;-84
2022/04/19 02:56:01;;;;;;;7.25;5.20;;;3.90;99.90;;;;;;5094055;28;20073;-85
2022/04/19 02:58:27;;;;;;;6.25;5.00;;;3.90;99.90;;;;;;5092860;28;20031;-85
2022/04/19 03:00:52;;;;;;;8.25;5.72;;;3.90;99.90;;;;;;5092824;28;20024;-85
2022/04/19 03:03:18;;;;;;;7.70;5.78;;;3.90;99.90;;;;;;5092856;28;20426;-84
2022/04/19 03:05:44;;;;;;;6.35;5.10;;;3.90;99.90;;;;;;5092799;28;20032;-85
2022/04/19 03:08:10;;;;;;;7.10;5.10;;;3.90;99.90;;;;;;5092760;28;20032;-85
2022/04/19 03:10:35;;;;;;;7.35;4.85;;;3.90;99.90;;;;;;5092709;28;20487;-85
2022/04/19 03:13:01;;;;;;;7.65;4.85;;;3.90;99.90;;;;;;5092867;28;20028;-85
2022/04/19 03:15:27;;;;;;;6.88;5.38;;;3.90;99.90;;;;;;5092755;28;20485;-85
2022/04/19 03:17:53;;;;;;;6.28;4.78;;;3.90;99.90;;;;;;5093855;28;20028;-85
2022/04/19 03:20:19;;;;;;;6.45;5.28;;;4.00;99.90;;;;;;5093666;28;20107;-85
2022/04/19 03:28:13;;;;;;;6.32;5.00;;;3.90;99.90;;;;;;5093674;28;20082;-84
2022/04/19 03:30:39;;;;;;;7.60;5.13;;;3.90;99.90;;;;;;5092283;28;20055;-85
2022/04/19 03:33:05;;;;;;;7.15;4.35;;;4.00;99.90;;;;;;5093602;28;20490;-82
2022/04/19 03:35:30;;;;;;;6.35;4.80;;;4.00;99.90;;;;;;5093274;28;20020;-84
2022/04/19 03:37:56;;;;;;;6.72;5.18;;;4.00;99.90;;;;;;5096106;28;20069;-83
2022/04/19 03:40:22;;;;;;;7.70;5.40;;;4.00;99.90;;;;;;5096068;28;20059;-84
2022/04/19 03:42:48;;;;;;;8.00;5.40;;;4.00;99.90;;;;;;5097269;28;20055;-83
2022/04/19 03:45:13;;;;;;;8.95;4.97;;;4.00;99.90;;;;;;5096061;28;20138;-84
2022/04/19 03:47:39;;;;;;;7.05;5.00;;;4.10;99.90;;;;;;5096252;28;20036;-84
2022/04/19 03:50:06;;;;;;;6.72;4.80;;;4.10;99.90;;;;;;5096149;28;20054;-84
2022/04/19 03:52:34;;;;;;;6.80;5.10;;;4.10;99.90;;;;;;5095850;28;20455;-84
2022/04/19 03:55:00;;;;;;;7.30;6.03;;;4.10;99.90;;;;;;5095838;28;20024;-83
2022/04/19 03:57:26;;;;;;;7.45;5.70;;;4.20;99.90;;;;;;5095644;28;20103;-83
2022/04/19 03:59:52;;;;;;;6.47;4.85;;;4.10;99.90;;;;;;5095638;28;20595;-83
2022/04/19 04:02:18;;;;;;;8.50;5.47;;;4.10;99.90;;;;;;5095670;28;20020;-85
2022/04/19 04:04:44;;;;;;;9.48;5.78;;;4.20;99.90;;;;;;5096677;28;20026;-84
2022/04/19 04:07:10;;;;;;;9.05;5.63;;;4.20;99.90;;;;;;5098912;28;20028;-85
2022/04/19 04:09:36;;;;;;;6.90;5.20;;;4.20;99.90;;;;;;5095760;28;20028;-84
2022/04/19 04:12:10;;;;;;;7.13;5.63;;;4.20;99.90;;;;;;5097433;28;20020;-85
2022/04/19 04:14:36;;;;;;;8.27;5.68;;;4.10;99.90;;;;;;5095579;28;20074;-84
2022/04/19 04:17:02;;;;;;;7.32;5.20;;;4.20;99.90;;;;;;5096230;28;20028;-83
2022/04/19 04:19:28;;;;;;;8.40;5.78;;;4.10;99.90;;;;;;5096599;28;20098;-85
2022/04/19 04:21:54;;;;;;;8.30;5.50;;;4.20;99.90;;;;;;5096025;28;20020;-85
2022/04/19 04:24:20;;;;;;;7.03;5.65;;;4.30;99.90;;;;;;5096503;28;20095;-84
2022/04/19 04:26:46;;;;;;;7.25;5.82;;;4.30;99.90;;;;;;5095787;28;20028;-85
2022/04/19 04:29:12;;;;;;;8.73;6.07;;;4.40;99.90;;;;;;5096180;28;20097;-84
2022/04/19 04:31:38;;;;;;;8.40;5.43;;;4.40;99.90;;;;;;5096201;28;20024;-84
2022/04/19 04:34:04;;;;;;;7.85;5.55;;;4.50;99.90;;;;;;5095155;28;20051;-84
2022/04/19 04:36:30;;;;;;;7.80;5.80;;;4.50;99.90;;;;;;5094839;28;20054;-85
2022/04/19 04:38:56;;;;;;;7.80;6.07;;;4.50;99.90;;;;;;5094627;28;20028;-84
2022/04/19 04:41:22;;;;;;;9.95;5.90;;;4.50;99.90;;;;;;5096426;28;20413;-87
2022/04/19 04:43:47;;;;;;;8.85;5.65;;;4.50;99.90;;;;;;5096466;28;20024;-87
2022/04/19 04:51:41;;;;;;;8.27;6.00;;;4.60;99.90;;;;;;5096320;28;20028;-87
2022/04/19 04:54:07;;;;;;;9.50;6.15;;;4.60;99.90;;;;;;5094861;28;20028;-86
2022/04/19 04:56:33;;;;;;;9.18;6.60;;;4.70;99.90;;;;;;5094777;28;20032;-86
2022/04/19 04:58:59;;;;;;;8.45;6.10;;;4.70;99.90;;;;;;5094118;28;20031;-86
2022/04/19 05:01:24;;;;;;;8.93;6.75;;;4.70;99.90;;;;;;5094210;28;20021;-86
2022/04/19 05:03:50;;;;;;;8.00;5.70;;;4.70;99.90;;;;;;5092917;28;20029;-86
2022/04/19 05:06:16;;;;;;;8.95;6.22;;;4.70;99.90;;;;;;5092841;28;20020;-87
2022/04/19 05:08:42;;;;;;;7.82;6.38;;;4.70;99.90;;;;;;5092522;28;20063;-85
2022/04/19 05:11:08;;;;;;;8.07;5.75;;;4.80;99.90;;;;;;5092868;28;20028;-88
2022/04/19 05:13:33;;;;;;;7.10;5.63;;;4.80;99.90;;;;;;5094022;28;20020;-88
2022/04/19 05:15:59;;;;;;;7.65;5.20;;;4.80;99.90;;;;;;5094454;28;20032;-88
2022/04/19 05:18:26;;;;;;;7.13;5.55;;;4.80;99.90;;;;;;5095567;28;20020;-87
2022/04/19 05:20:52;;;;;;;6.93;4.95;;;4.80;99.90;;;;;;5094273;28;20028;-88
2022/04/19 05:23:19;;;;;;;9.55;6.93;;;4.90;99.90;;;;;;5094312;28;20490;-87
2022/04/19 05:25:44;;;;;;;8.07;6.03;;;5.00;99.90;;;;;;5094427;28;20439;-88
2022/04/19 05:28:10;;;;;;;7.47;5.30;;;5.00;99.90;;;;;;5094147;28;20078;-88
2022/04/19 05:30:36;;;;;;;8.05;5.43;;;5.10;99.90;;;;;;5095517;28;20095;-88
2022/04/19 05:33:02;;;;;;;7.40;5.35;;;5.20;99.90;;;;;;5094380;28;20020;-88
2022/04/19 05:35:28;;;;;;;6.63;5.07;;;5.30;99.90;;;;;;5093855;28;20024;-88
2022/04/19 05:37:55;;;;;;;6.93;5.78;;;5.20;99.90;;;;;;5094262;28;20024;-88
2022/04/19 05:40:21;;;;;;;6.40;5.28;;;5.20;99.90;;;;;;5094136;28;20107;-87
2022/04/19 05:42:47;;;;;;;8.27;5.50;;;5.10;99.90;;;;;;5095161;28;20020;-88
2022/04/19 05:45:13;;;;;;;7.57;5.13;;;5.20;99.90;;;;;;5095087;28;20063;-87
2022/04/19 05:47:39;;;;;;;6.72;5.65;;;5.20;99.90;;;;;;5093816;28;20055;-87
2022/04/19 05:50:05;;;;;;;6.60;4.78;;;5.30;99.90;;;;;;5093937;28;20020;-87
2022/04/19 05:52:31;;;;;;;7.25;5.10;;;5.40;99.90;;;;;;5093913;28;20074;-88
2022/04/19 05:54:57;;;;;;;5.97;5.00;;;5.50;99.90;;;;;;5093859;28;20051;-87
2022/04/19 05:57:23;;;;;;;5.45;4.63;;;5.50;99.90;;;;;;5093630;28;20115;-87
2022/04/19 05:59:48;;;;;;;4.28;3.88;;;5.50;99.90;;;;;;5093306;28;20493;-87
2022/04/19 06:04:59;;;;;;;8.00;6.47;;;5.50;99.90;;;;;;5095012;28;20540;-87
2022/04/19 06:07:29;;;;;;;6.65;5.53;;;5.60;99.90;;;;;;5093573;28;20024;-88
2022/04/19 06:09:55;;;;;;;5.33;4.70;;;5.70;99.90;;;;;;5094764;28;20016;-88
2022/04/19 06:12:22;;;;;;;7.20;5.45;;;5.80;99.90;;;;;;5093480;28;20020;-88
2022/04/19 06:14:47;;;;;;;3.55;3.20;;;5.80;99.90;;;;;;5094777;28;20020;-86
2022/04/19 06:17:17;;;;;;;6.57;5.10;;;5.70;99.90;;;;;;5093639;28;20368;-87
2022/04/19 06:19:44;;;;;;;9.18;6.70;;;5.80;99.90;;;;;;5094814;28;20020;-86
2022/04/19 06:22:10;;;;;;;7.55;6.60;;;5.80;99.90;;;;;;5093341;28;20062;-86
2022/04/19 06:24:37;;;;;;;7.65;6.38;;;5.80;99.90;;;;;;5093317;28;20035;-88
2022/04/19 06:27:03;;;;;;;67.75;38.20;;;5.90;99.90;;;;;;5093161;28;20031;-87
2022/04/19 06:29:29;;;;;;;9.60;7.53;;;5.90;99.90;;;;;;5093072;28;20044;-88
2022/04/19 06:31:55;;;;;;;9.60;8.60;;;5.90;99.90;;;;;;5094228;28;20028;-88
2022/04/19 06:34:21;;;;;;;8.65;7.20;;;5.90;99.90;;;;;;5093365;28;20379;-87
2022/04/19 06:36:47;;;;;;;13.13;10.40;;;5.80;99.90;;;;;;5094408;28;20021;-86
2022/04/19 06:39:13;;;;;;;10.50;8.77;;;5.90;99.90;;;;;;5093090;28;20035;-85
2022/04/19 06:41:41;;;;;;;9.60;7.68;;;5.90;99.90;;;;;;5093044;28;20051;-87
2022/04/19 06:44:08;;;;;;;8.60;7.70;;;5.90;99.90;;;;;;5094429;28;20027;-86
2022/04/19 06:46:36;;;;;;;10.25;9.18;;;5.90;99.90;;;;;;5093059;28;20122;-86
2022/04/19 06:49:03;;;;;;;21.92;15.25;;;5.90;99.90;;;;;;5092930;28;20028;-86
2022/04/19 06:51:32;;;;;;;17.50;14.05;;;5.90;99.90;;;;;;5093122;28;20028;-86
2022/04/19 06:53:58;;;;;;;8.63;6.30;;;6.00;99.90;;;;;;5093087;28;20066;-86
2022/04/19 06:56:24;;;;;;;7.10;6.00;;;6.00;99.90;;;;;;5092805;28;20017;-87
2022/04/19 06:58:50;;;;;;;8.45;6.50;;;6.00;99.90;;;;;;5093071;28;20066;-87
2022/04/19 07:01:16;;;;;;;6.35;5.65;;;6.00;99.90;;;;;;5093072;28;20020;-86
2022/04/19 07:03:42;;;;;;;6.70;5.70;;;6.10;99.90;;;;;;5093191;28;20387;-87
2022/04/19 07:06:08;;;;;;;7.22;6.03;;;6.10;99.90;;;;;;5092964;28;20028;-87
2022/04/19 07:08:34;;;;;;;6.22;4.75;;;6.20;99.90;;;;;;5092966;28;20031;-86
2022/04/19 07:11:03;;;;;;;4.90;4.40;;;6.20;99.90;;;;;;5096398;28;20032;-87
2022/04/19 07:13:29;;;;;;;5.28;4.53;;;6.30;99.90;;;;;;5096700;28;20039;-86
2022/04/19 07:15:55;;;;;;;5.97;4.68;;;6.30;99.90;;;;;;5097790;28;20020;-87
2022/04/19 07:18:24;;;;;;;6.30;5.50;;;6.40;99.90;;;;;;5098115;28;20371;-87
2022/04/19 07:29:08;;;;;;;9.13;7.72;;;6.40;99.90;;;;;;5097654;28;20055;-89
2022/04/19 07:31:34;;;;;;;7.55;6.40;;;6.30;99.90;;;;;;5096326;28;20020;-88
2022/04/19 07:34:01;;;;;;;5.75;4.93;;;6.30;99.90;;;;;;5097653;28;20028;-88
2022/04/19 07:36:26;;;;;;;6.32;5.47;;;6.30;99.90;;;;;;5096414;28;20065;-89
2022/04/19 07:38:52;;;;;;;5.63;4.55;;;6.30;99.90;;;;;;5097457;28;20032;-88
2022/04/19 07:41:18;;;;;;;5.88;4.93;;;6.40;99.90;;;;;;5096155;28;20020;-88
2022/04/19 07:43:45;;;;;;;7.15;6.35;;;6.40;99.90;;;;;;5096198;28;20488;-88
2022/04/19 07:46:15;;;;;;;5.72;5.15;;;6.50;99.90;;;;;;5096372;28;20038;-86
2022/04/19 07:48:44;;;;;;;6.00;5.15;;;6.50;99.90;;;;;;5095933;28;20048;-88
2022/04/19 07:51:14;;;;;;;5.72;4.97;;;6.50;99.90;;;;;;5097019;28;20091;-87
2022/04/19 07:53:40;;;;;;;9.23;5.90;;;6.50;99.90;;;;;;5097120;28;20032;-89
2022/04/19 07:56:06;;;;;;;6.57;5.53;;;6.50;99.90;;;;;;5097185;28;20031;-88
2022/04/19 07:58:32;;;;;;;8.68;6.70;;;6.50;99.90;;;;;;5097115;28;20031;-88
2022/04/19 08:00:59;;;;;;;7.43;6.28;;;6.40;99.90;;;;;;5096153;28;20024;-89
2022/04/19 08:03:25;;;;;;;14.57;11.15;;;6.50;99.90;;;;;;5096104;28;20386;-88
2022/04/19 08:05:52;;;;;;;15.27;10.23;;;6.40;99.90;;;;;;5096068;28;20020;-88
2022/04/19 08:08:21;;;;;;;10.57;7.55;;;6.40;99.90;;;;;;5096800;28;20024;-87
2022/04/19 08:10:47;;;;;;;10.43;7.65;;;6.40;99.90;;;;;;5096901;28;20020;-89
2022/04/19 08:13:13;;;;;;;9.80;8.80;;;6.50;99.90;;;;;;5095726;28;20028;-89
2022/04/19 08:15:39;;;;;;;11.98;9.15;;;6.50;99.90;;;;;;5095849;28;20427;-88
2022/04/19 08:18:05;;;;;;;8.48;6.97;;;6.50;99.90;;;;;;5096652;28;20034;-88
2022/04/19 08:20:31;;;;;;;11.32;7.38;;;6.40;99.90;;;;;;5095468;28;20032;-88
2022/04/19 08:22:57;;;;;;;11.18;8.00;;;6.40;99.90;;;;;;5096247;28;20024;-88
2022/04/19 08:25:23;;;;;;;5.65;5.10;;;6.30;99.90;;;;;;5095435;28;20028;-88
2022/04/19 08:27:48;;;;;;;12.70;9.75;;;6.40;99.90;;;;;;5096472;28;20052;-89
2022/04/19 08:30:18;;;;;;;11.15;8.18;;;6.50;99.90;;;;;;5095226;28;20026;-89
2022/04/19 08:32:48;;;;;;;6.10;4.85;;;6.50;99.90;;;;;;5096362;28;20104;-88
2022/04/19 08:35:14;;;;;;;10.82;7.55;;;6.40;99.90;;;;;;5096370;28;20102;-89
2022/04/19 08:37:40;;;;;;;6.80;5.93;;;6.50;99.90;;;;;;5096446;28;20028;-89
2022/04/19 08:40:09;;;;;;;6.28;5.45;;;6.60;99.90;;;;;;5096372;28;20021;-89
2022/04/19 08:42:37;;;;;;;6.10;5.47;;;6.50;99.90;;;;;;5095082;28;20023;-89
2022/04/19 08:45:04;;;;;;;7.78;6.18;;;6.60;99.90;;;;;;5095024;28;20054;-89
2022/04/19 08:47:37;;;;;;;7.63;6.20;;;6.60;99.90;;;;;;5094929;28;20020;-89
2022/04/19 08:50:05;;;;;;;7.90;6.10;;;6.70;99.90;;;;;;5094965;28;20016;-89
2022/04/19 08:52:34;;;;;;;6.07;5.47;;;6.70;99.90;;;;;;5094747;28;20024;-89
2022/04/19 08:57:45;;;;;;;8.75;6.35;;;6.80;99.90;;;;;;5096142;28;20160;-90
2022/04/19 09:00:12;;;;;;;7.75;6.90;;;6.80;99.90;;;;;;5095898;28;20024;-88
2022/04/19 09:02:38;;;;;;;10.15;7.72;;;6.70;99.90;;;;;;5094664;28;20023;-88
2022/04/19 09:05:15;;;;;;;10.85;8.80;;;6.70;99.90;;;;;;5096075;28;20024;-88
2022/04/19 09:07:41;;;;;;;7.25;6.03;;;6.70;99.90;;;;;;5094584;28;20068;-88
2022/04/19 09:10:11;;;;;;;7.47;5.82;;;6.80;99.90;;;;;;5094509;28;20023;-88
2022/04/19 09:12:37;;;;;;;7.22;5.80;;;6.80;99.90;;;;;;5094532;28;20028;-87
2022/04/19 09:15:08;;;;;;;7.82;5.43;;;6.80;99.90;;;;;;5094235;28;20032;-88
2022/04/19 09:17:40;;;;;;;;;;;6.80;99.90;;;;;;5094806;28;20387;-89
2022/04/19 09:20:12;;;;;;;5.78;5.03;;;6.90;99.90;;;;;;5094562;28;20010;-86
2022/04/19 09:22:38;;;;;;;7.22;5.50;;;6.90;99.90;;;;;;5095498;28;20024;-89
2022/04/19 09:25:24;;;;;;;5.85;5.25;;;7.00;99.90;;;;;;5094240;28;20032;-89
2022/04/19 09:27:51;;;;;;;8.25;5.70;;;7.10;99.90;;;;;;5094078;28;20372;-89
2022/04/19 09:30:25;;;;;;;6.93;5.47;;;7.00;99.90;;;;;;5095360;28;20020;-89
2022/04/19 09:33:11;;;;;;;7.10;6.40;;;7.10;99.90;;;;;;5093494;28;20200;-89
2022/04/19 09:35:45;;;;;;;7.03;6.28;;;7.20;99.90;;;;;;5095201;28;20046;-90
2022/04/19 09:38:12;;;;;;;7.57;6.30;;;7.30;99.90;;;;;;5094219;28;20028;-89
2022/04/19 09:40:44;;;;;;;7.40;6.57;;;7.40;99.90;;;;;;5095204;28;20150;-89
2022/04/19 09:43:15;;;;;;;8.30;7.32;;;7.50;99.90;;;;;;5094024;28;20028;-88
2022/04/19 09:45:55;;;;;;;14.90;10.00;;;7.50;99.90;;;;;;5093873;28;20390;-90
2022/04/19 09:48:26;;;;;;;15.27;10.20;;;7.40;99.90;;;;;;5095075;28;20021;-89
2022/04/19 09:50:58;;;;;;;17.75;12.13;;;7.50;99.90;;;;;;5094000;28;20057;-89
2022/04/19 09:53:26;;;;;;;19.15;12.60;;;7.60;99.90;;;;;;5093952;28;20423;-89
2022/04/19 09:55:55;;;;;;;6.60;5.88;;;7.70;99.90;;;;;;5094913;28;20027;-88
2022/04/19 09:58:21;;;;;;;11.75;8.38;;;7.70;99.90;;;;;;5093847;28;20158;-89
2022/04/19 10:00:48;;;;;;;24.05;14.23;;;7.60;99.90;;;;;;5093691;28;20039;-88
2022/04/19 10:08:46;;;;;;;17.13;12.07;;;7.70;99.90;;;;;;5094853;28;20031;-88
2022/04/19 10:11:13;;;;;;;8.52;7.07;;;7.70;99.90;;;;;;5094612;28;20482;-88
2022/04/19 10:13:40;;;;;;;11.65;9.70;;;7.70;99.90;;;;;;5093686;28;20028;-89
2022/04/19 10:16:14;;;;;;;10.85;8.55;;;7.80;99.90;;;;;;5093517;28;20043;-89
2022/04/19 10:18:44;;;;;;;7.00;5.22;;;7.90;99.90;;;;;;5093520;28;20185;-88
2022/04/19 10:21:34;;;;;;;6.25;5.35;;;8.00;99.90;;;;;;5093536;28;20106;-89
2022/04/19 10:24:10;;;;;;;6.60;5.22;;;7.90;99.90;;;;;;5094626;28;20505;-89
2022/04/19 10:26:46;;;;;;;11.60;8.27;;;7.90;99.90;;;;;;5093221;28;20434;-86
2022/04/19 10:29:44;;;;;;;10.02;6.93;;;7.80;99.90;;;;;;5092938;28;20096;-87
2022/04/19 10:32:11;;;;;;;8.90;6.22;;;7.80;99.90;;;;;;5049854;28;20039;-86
2022/04/19 10:34:39;;;;;;;7.00;6.00;;;7.80;99.90;;;;;;5093270;28;20101;-86
2022/04/19 10:37:11;;;;;;;7.10;5.65;;;7.90;99.90;;;;;;5094301;28;20071;-87
2022/04/19 10:40:03;;;;;;;6.40;5.60;;;7.80;99.90;;;;;;5093413;28;20024;-87
2022/04/19 10:42:30;;;;;;;8.90;5.95;;;7.90;99.90;;;;;;5092709;28;20040;-86
2022/04/19 10:44:56;;;;;;;67.28;29.67;;;7.90;99.90;;;;;;5096435;28;20020;-86
2022/04/19 10:47:23;;;;;;;30.13;22.95;;;7.90;99.90;;;;;;5097406;28;20081;-87
2022/04/19 10:50:01;;;;;;;10.10;8.18;;;8.00;99.90;;;;;;5097139;28;20035;-86
2022/04/19 10:52:45;;;;;;;7.13;6.35;;;7.90;99.90;;;;;;5097284;28;20027;-87
2022/04/19 10:55:18;;;;;;;13.73;11.90;;;7.80;99.90;;;;;;5097274;28;20048;-87
2022/04/19 11:00:41;;;;;;;10.10;8.98;;;7.70;99.90;;;;;;5098672;28;20043;-86
2022/04/19 11:03:14;;;;;;;9.52;8.48;;;7.70;99.90;;;;;;5097025;28;20031;-85
2022/04/19 11:05:48;;;;;;;9.63;7.50;;;7.70;99.90;;;;;;5096983;28;20051;-86
2022/04/19 11:08:26;;;;;;;31.73;22.42;;;7.80;99.90;;;;;;5096998;28;20055;-85
2022/04/19 11:11:06;;;;;;;31.60;22.77;;;7.80;99.90;;;;;;5096811;28;20024;-86
2022/04/19 11:13:35;;;;;;;;;;;8.00;99.90;;;;;;5098363;28;20028;-86
2022/04/19 11:16:11;;;;;;;9.23;7.15;;;8.00;99.90;;;;;;5096762;28;20011;-86
2022/04/19 11:18:37;;;;;;;7.13;5.78;;;8.10;99.90;;;;;;5096813;28;20440;-86
2022/04/19 11:21:11;;;;;;;7.38;5.78;;;8.10;99.90;;;;;;5096840;28;20028;-86
2022/04/19 11:23:44;;;;;;;6.07;4.90;;;8.20;99.90;;;;;;5093479;28;20394;-87
2022/04/19 11:26:30;;;;;;;6.60;5.05;;;8.30;99.90;;;;;;5097605;28;20016;-87
2022/04/19 11:29:09;;;;;;;6.22;5.15;;;8.30;99.90;;;;;;5096201;28;20055;-85
2022/04/19 11:31:44;;;;;;;7.07;6.38;;;8.30;99.90;;;;;;5097587;28;20020;-87
2022/04/19 11:34:16;;;;;;;9.15;5.57;;;8.40;99.90;;;;;;5096294;28;20090;-88
2022/04/19 11:36:43;;;;;;;6.53;5.68;;;8.40;99.90;;;;;;5096408;28;20039;-88
2022/04/19 11:46:43;;;;;;;6.70;5.40;;;8.30;99.90;;;;;;5097628;28;20074;-88
2022/04/19 11:47:45;;;;;;;6.85;5.30;;;8.20;99.90;;;;;;5097651;28;20060;-88
2022/04/19 11:50:31;;;;;;;6.97;5.68;;;8.40;99.90;;;;;;5097059;28;20020;-87
2022/04/19 11:53:00;;;;;;;7.78;5.82;;;8.40;99.90;;;;;;5096196;28;20077;-88
2022/04/19 11:55:27;;;;;;;6.00;4.80;;;8.50;99.90;;;;;;5096868;28;20467;-86
2022/04/19 11:58:09;;;;;;;5.30;4.80;;;8.50;99.90;;;;;;5095392;28;20032;-88
2022/04/19 12:00:36;;;;;;;6.45;5.20;;;8.50;99.90;;;;;;5096855;28;20094;-87
2022/04/19 12:03:21;;;;;;;5.45;4.70;;;8.60;99.90;;;;;;5095732;28;20076;-85
2022/04/19 12:05:47;;;;;;;4.55;4.15;;;8.50;99.90;;;;;;5095615;28;20024;-85
2022/04/19 12:08:28;;;;;;;6.22;4.57;;;8.50;99.90;;;;;;5096461;28;20035;-86
2022/04/19 12:10:54;;;;;;;4.90;4.40;;;8.50;99.90;;;;;;5095639;28;20024;-87
2022/04/19 12:13:20;;;;;;;5.57;4.70;;;8.40;99.90;;;;;;5096698;28;20360;-87
2022/04/19 12:15:46;;;;;;;4.57;4.18;;;8.50;99.90;;;;;;5095654;28;20031;-87
2022/04/19 12:18:32;;;;;;;5.00;4.53;;;8.50;99.90;;;;;;5095453;28;20028;-87
2022/04/19 12:20:59;;;;;;;7.40;5.95;;;8.50;99.90;;;;;;5096564;28;20028;-87
2022/04/19 12:23:24;;;;;;;4.68;4.18;;;8.60;99.90;;;;;;5095569;28;20035;-87
2022/04/19 12:26:00;;;;;;;5.65;5.05;;;8.50;99.90;;;;;;5096434;28;20386;-86
2022/04/19 12:28:35;;;;;;;5.10;4.60;;;8.30;99.90;;;;;;5096010;28;20081;-87
2022/04/19 12:31:00;;;;;;;5.53;4.97;;;8.30;99.90;;;;;;5096418;28;20467;-86
2022/04/19 12:33:26;;;;;;;6.75;5.07;;;8.30;99.90;;;;;;5095456;28;20027;-86
2022/04/19 12:35:55;;;;;;;5.15;4.50;;;8.40;99.90;;;;;;5096320;28;20097;-87
2022/04/19 12:38:28;;;;;;;4.85;4.35;;;8.50;99.90;;;;;;5094997;28;20024;-86
2022/04/19 12:40:54;;;;;;;4.28;3.88;;;8.50;99.90;;;;;;5096048;28;20126;-86
2022/04/19 12:43:20;;;;;;;4.50;4.10;;;8.40;99.90;;;;;;5095768;28;20454;-87
2022/04/19 12:45:48;;;;;;;5.30;4.55;;;8.40;99.90;;;;;;5094770;28;20122;-86
2022/04/19 12:48:21;;;;;;;5.13;4.63;;;8.50;99.90;;;;;;5094653;28;20024;-86
2022/04/19 12:50:47;;;;;;;5.55;4.82;;;8.30;99.90;;;;;;5094706;28;20024;-87
2022/04/19 12:53:25;;;;;;;5.25;4.75;;;8.30;99.90;;;;;;5095752;28;20034;-87
2022/04/19 12:55:50;;;;;;;5.93;5.03;;;8.30;99.90;;;;;;5095827;28;20077;-87
2022/04/19 12:58:16;;;;;;;5.30;4.75;;;8.40;99.90;;;;;;5094538;28;20032;-86
2022/04/19 13:00:42;;;;;;;6.95;5.53;;;8.40;99.90;;;;;;5094648;28;20116;-86
2022/04/19 13:03:07;;;;;;;5.40;4.90;;;8.40;99.90;;;;;;5095833;28;20401;-87
2022/04/19 13:13:45;;;;;;;5.35;4.85;;;8.40;99.90;;;;;;5095574;28;20023;-86
2022/04/19 13:16:11;;;;;;;6.20;5.28;;;8.30;99.90;;;;;;5094161;28;20024;-86
2022/04/19 13:18:38;;;;;;;6.30;5.18;;;8.40;99.90;;;;;;5095574;28;20047;-87
2022/04/19 13:21:05;;;;;;;6.35;5.53;;;8.60;99.90;;;;;;5094206;28;20024;-86
2022/04/19 13:23:30;;;;;;;6.10;5.50;;;8.70;99.90;;;;;;5095214;28;20089;-86
2022/04/19 13:25:56;;;;;;;6.07;5.45;;;8.80;99.90;;;;;;5095253;28;20428;-86
2022/04/19 13:28:26;;;;;;;6.68;5.65;;;8.80;99.90;;;;;;5093802;28;20446;-86
2022/04/19 13:30:53;;;;;;;6.20;5.57;;;8.80;99.90;;;;;;5095274;28;20040;-85
2022/04/19 13:33:18;;;;;;;13.68;7.82;;;8.70;99.90;;;;;;5093926;28;20088;-86
2022/04/19 13:35:44;;;;;;;8.07;7.25;;;8.70;99.90;;;;;;5093752;28;20475;-86
2022/04/19 13:38:25;;;;;;;6.80;6.13;;;8.70;99.90;;;;;;5095199;28;20024;-86
2022/04/19 13:40:51;;;;;;;9.57;8.27;;;8.80;99.90;;;;;;5093984;28;20382;-87
2022/04/19 13:43:17;;;;;;;9.80;7.70;;;8.90;99.90;;;;;;5094936;28;20024;-86
2022/04/19 13:45:43;;;;;;;10.38;8.82;;;9.00;99.90;;;;;;5094906;28;20378;-86
2022/04/19 13:48:09;;;;;;;8.98;8.00;;;8.90;99.90;;;;;;5093553;28;20028;-85
2022/04/19 13:50:36;;;;;;;12.05;8.45;;;9.00;99.90;;;;;;5093721;28;20024;-86